createdAt,value
2022-11-12T00:00:35.218Z,17.63
2022-11-12T00:03:01.903Z,21.63
2022-11-12T00:05:28.588Z,20.55
2022-11-12T00:07:55.162Z,17.88
2022-11-12T00:10:22.035Z,20.65
2022-11-12T00:12:48.663Z,15.18
2022-11-12T00:15:15.430Z,18.85
2022-11-12T00:17:42.058Z,17.65
2022-11-12T00:20:08.919Z,18.48
2022-11-12T00:22:35.634Z,17.58
2022-11-12T00:25:02.480Z,19.05
2022-11-12T00:27:29.057Z,16.88
2022-11-12T00:29:55.669Z,18.10
2022-11-12T00:32:22.243Z,20.60
2022-11-12T00:34:48.829Z,18.48
2022-11-12T00:37:16.677Z,18.55
2022-11-12T00:39:43.313Z,18.88
2022-11-12T00:42:09.951Z,17.27
2022-11-12T00:44:36.567Z,19.45
2022-11-12T00:47:03.232Z,21.25
2022-11-12T00:49:30.173Z,18.17
2022-11-12T00:51:56.790Z,20.55
2022-11-12T00:54:23.406Z,25.15
2022-11-12T00:56:50.042Z,21.27
2022-11-12T00:59:16.681Z,19.50
2022-11-12T01:01:43.266Z,19.35
2022-11-12T01:04:10.010Z,20.50
2022-11-12T01:06:39.443Z,28.65
2022-11-12T01:09:06.102Z,25.65
2022-11-12T01:11:32.741Z,33.20
2022-11-12T01:14:02.556Z,26.55
2022-11-12T01:16:30.966Z,27.92
2022-11-12T01:18:59.403Z,22.67
2022-11-12T01:21:27.787Z,29.05
2022-11-12T01:23:54.329Z,25.35
2022-11-12T01:26:21.927Z,29.52
2022-11-12T01:28:48.813Z,25.48
2022-11-12T01:31:18.817Z,21.90
2022-11-12T01:33:49.638Z,25.38
2022-11-12T01:36:17.189Z,21.88
2022-11-12T01:38:44.218Z,22.80
2022-11-12T01:41:13.414Z,24.65
2022-11-12T01:43:40.029Z,23.88
2022-11-12T01:46:14.623Z,28.83
2022-11-12T01:48:48.777Z,25.65
2022-11-12T01:51:15.439Z,30.92
2022-11-12T01:53:44.940Z,29.40
2022-11-12T01:56:11.550Z,27.95
2022-11-12T01:58:38.457Z,36.10
2022-11-12T02:01:05.143Z,31.05
2022-11-12T02:03:32.602Z,31.75
2022-11-12T02:06:01.191Z,34.53
2022-11-12T02:08:28.763Z,29.23
2022-11-12T02:10:55.354Z,33.45
2022-11-12T02:13:41.945Z,30.27
2022-11-12T02:16:09.041Z,32.80
2022-11-12T02:18:35.598Z,32.92
2022-11-12T02:21:05.218Z,26.20
2022-11-12T02:23:32.299Z,28.50
2022-11-12T02:26:00.554Z,28.75
2022-11-12T02:28:28.066Z,27.10
2022-11-12T02:30:54.964Z,32.10
2022-11-12T02:33:21.560Z,30.10
2022-11-12T02:35:48.181Z,29.73
2022-11-12T02:38:14.810Z,26.45
2022-11-12T02:40:41.417Z,29.60
2022-11-12T02:43:08.066Z,28.23
2022-11-12T02:45:34.670Z,23.88
2022-11-12T02:48:01.467Z,30.70
2022-11-12T02:50:28.060Z,28.65
2022-11-12T02:52:54.635Z,27.35
2022-11-12T02:55:21.222Z,29.38
2022-11-12T02:57:47.817Z,28.27
2022-11-12T03:00:14.540Z,26.48
2022-11-12T03:02:58.662Z,26.23
2022-11-12T03:05:26.528Z,25.35
2022-11-12T03:08:03.559Z,24.35
2022-11-12T03:10:30.355Z,25.27
2022-11-12T03:12:58.000Z,25.02
2022-11-12T03:15:24.633Z,26.88
2022-11-12T03:17:51.212Z,26.48
2022-11-12T03:20:17.873Z,25.55
2022-11-12T03:22:55.036Z,24.35
2022-11-12T03:25:21.653Z,26.40
2022-11-12T03:27:48.240Z,30.85
2022-11-12T03:30:14.899Z,22.95
2022-11-12T03:32:41.472Z,25.88
2022-11-12T03:35:08.482Z,25.45
2022-11-12T03:37:35.126Z,22.60
2022-11-12T03:40:01.703Z,21.65
2022-11-12T03:42:28.290Z,23.25
2022-11-12T03:44:54.884Z,21.55
2022-11-12T03:47:21.487Z,23.08
2022-11-12T03:49:48.111Z,20.30
2022-11-12T03:52:14.688Z,19.48
2022-11-12T03:54:41.297Z,20.75
2022-11-12T03:57:07.870Z,17.90
2022-11-12T03:59:34.504Z,19.45
2022-11-12T04:02:01.134Z,21.17
2022-11-12T04:04:47.653Z,22.63
2022-11-12T04:07:34.202Z,22.50
2022-11-12T04:10:00.796Z,23.85
2022-11-12T04:12:47.323Z,27.75
2022-11-12T04:15:13.935Z,25.38
2022-11-12T04:18:00.471Z,25.08
2022-11-12T04:20:47.001Z,23.90
2022-11-12T04:23:13.615Z,22.98
2022-11-12T04:26:00.347Z,22.95
2022-11-12T04:28:27.190Z,23.50
2022-11-12T04:30:54.109Z,30.20
2022-11-12T04:33:20.690Z,26.38
2022-11-12T04:35:47.274Z,26.52
2022-11-12T04:38:13.912Z,24.35
2022-11-12T04:41:00.429Z,33.58
2022-11-12T04:43:46.950Z,28.83
2022-11-12T04:46:13.576Z,28.13
2022-11-12T04:48:40.197Z,27.17
2022-11-12T04:51:26.720Z,28.42
2022-11-12T04:53:53.314Z,24.98
2022-11-12T04:56:19.918Z,29.77
2022-11-12T04:58:46.559Z,24.55
2022-11-12T05:01:13.172Z,44.03
2022-11-12T05:03:39.746Z,28.55
2022-11-12T05:06:26.624Z,31.02
2022-11-12T05:08:53.209Z,32.45
2022-11-12T05:11:20.237Z,32.90
2022-11-12T05:13:46.822Z,32.33
2022-11-12T05:16:13.410Z,34.05
2022-11-12T05:18:39.961Z,34.05
2022-11-12T05:21:26.437Z,35.25
2022-11-12T05:23:53.006Z,32.38
2022-11-12T05:26:19.590Z,47.00
2022-11-12T05:28:46.184Z,47.70
2022-11-12T05:31:12.791Z,34.40
2022-11-12T05:33:39.417Z,25.88
2022-11-12T05:36:06.298Z,29.83
2022-11-12T05:38:32.921Z,43.72
2022-11-12T05:40:59.493Z,28.15
2022-11-12T05:43:26.169Z,30.80
2022-11-12T05:45:52.737Z,27.85
2022-11-12T05:48:24.236Z,26.67
2022-11-12T05:51:11.952Z,28.77
2022-11-12T05:53:39.938Z,33.30
2022-11-12T05:56:06.994Z,27.58
2022-11-12T05:58:33.856Z,33.08
2022-11-12T06:01:00.514Z,38.78
2022-11-12T06:03:27.127Z,19.83
2022-11-12T06:05:53.815Z,24.30
2022-11-12T06:08:20.460Z,25.77
2022-11-12T06:10:49.511Z,28.52
2022-11-12T06:13:16.189Z,20.77
2022-11-12T06:15:42.816Z,20.30
2022-11-12T06:18:09.656Z,31.52
2022-11-12T06:20:36.264Z,34.90
2022-11-12T06:23:02.937Z,32.40
2022-11-12T06:25:29.661Z,35.22
2022-11-12T06:27:56.243Z,30.35
2022-11-12T06:30:25.623Z,30.98
2022-11-12T06:32:52.618Z,25.08
2022-11-12T06:35:19.642Z,26.17
2022-11-12T06:37:47.586Z,22.85
2022-11-12T06:40:14.397Z,18.20
2022-11-12T06:42:40.983Z,27.63
2022-11-12T06:45:07.964Z,22.00
2022-11-12T06:47:34.518Z,16.92
2022-11-12T06:50:02.291Z,25.77
2022-11-12T06:52:28.926Z,26.15
2022-11-12T06:54:55.498Z,19.70
2022-11-12T06:57:22.104Z,21.02
2022-11-12T06:59:48.714Z,22.67
2022-11-12T07:02:15.333Z,17.35
2022-11-12T07:04:41.973Z,14.23
2022-11-12T07:07:10.783Z,19.55
2022-11-12T07:09:37.717Z,21.33
2022-11-12T07:12:04.536Z,15.88
2022-11-12T07:14:31.166Z,14.75
2022-11-12T07:16:57.771Z,17.33
2022-11-12T07:19:24.366Z,17.60
2022-11-12T07:21:50.995Z,14.05
2022-11-12T07:24:17.859Z,14.90
2022-11-12T07:26:47.540Z,13.98
2022-11-12T07:29:30.157Z,16.73
2022-11-12T07:32:01.513Z,13.45
2022-11-12T07:34:28.106Z,13.25
2022-11-12T07:36:54.670Z,14.40
2022-11-12T07:39:21.262Z,11.98
2022-11-12T07:41:47.911Z,11.48
2022-11-12T07:44:14.594Z,10.98
2022-11-12T07:46:41.248Z,11.48
2022-11-12T07:49:07.843Z,8.60
2022-11-12T07:51:34.410Z,13.88
2022-11-12T07:54:01.178Z,10.27
2022-11-12T07:56:28.236Z,8.20
2022-11-12T07:58:54.839Z,8.93
2022-11-12T08:01:40.721Z,9.27
2022-11-12T08:04:09.297Z,8.07
2022-11-12T08:06:36.125Z,9.98
2022-11-12T08:09:04.798Z,8.75
2022-11-12T08:11:31.755Z,8.23
2022-11-12T08:13:58.328Z,8.85
2022-11-12T08:16:25.019Z,9.32
2022-11-12T08:18:51.638Z,9.63
2022-11-12T08:21:18.526Z,8.57
2022-11-12T08:23:45.321Z,8.73
2022-11-12T08:26:12.967Z,6.85
2022-11-12T08:28:39.611Z,7.13
2022-11-12T08:31:09.227Z,7.97
2022-11-12T08:33:35.835Z,6.75
2022-11-12T08:36:04.494Z,7.60
2022-11-12T08:38:31.090Z,7.70
2022-11-12T08:41:06.496Z,6.57
2022-11-12T08:43:33.241Z,8.02
2022-11-12T08:46:00.368Z,8.38
2022-11-12T08:48:27.368Z,7.85
2022-11-12T08:50:54.244Z,6.70
2022-11-12T08:53:21.436Z,7.55
2022-11-12T08:55:48.170Z,8.05
2022-11-12T08:58:14.850Z,7.70
2022-11-12T09:00:44.123Z,6.80
2022-11-12T09:03:14.625Z,7.10
2022-11-12T09:05:41.255Z,7.13
2022-11-12T09:08:09.666Z,8.82
2022-11-12T09:10:36.541Z,8.48
2022-11-12T09:13:03.248Z,8.93
2022-11-12T09:15:37.500Z,10.15
2022-11-12T09:18:07.123Z,9.27
2022-11-12T09:20:33.728Z,9.80
2022-11-12T09:23:01.754Z,9.85
2022-11-12T09:25:28.490Z,10.82
2022-11-12T09:27:55.320Z,10.63
2022-11-12T09:30:22.295Z,8.23
2022-11-12T09:32:48.945Z,9.40
2022-11-12T09:35:15.661Z,9.30
2022-11-12T09:37:42.350Z,7.93
2022-11-12T09:40:11.119Z,8.35
2022-11-12T09:42:37.756Z,10.90
2022-11-12T09:45:13.136Z,12.25
2022-11-12T09:47:45.327Z,11.73
2022-11-12T09:50:32.588Z,12.68
2022-11-12T09:53:18.952Z,10.82
2022-11-12T09:55:48.365Z,9.32
2022-11-12T09:58:16.471Z,8.85
2022-11-12T10:00:52.753Z,12.65
2022-11-12T10:06:00.311Z,13.68
2022-11-12T10:08:40.088Z,9.13
2022-11-12T10:14:13.691Z,9.38
2022-11-12T10:17:07.475Z,8.98
2022-11-12T10:20:13.935Z,11.43
2022-11-12T10:22:56.606Z,11.45
2022-11-12T10:25:24.492Z,9.00
2022-11-12T10:27:51.072Z,11.48
2022-11-12T10:30:19.268Z,10.02
2022-11-12T10:32:46.406Z,9.70
2022-11-12T10:35:14.944Z,8.95
2022-11-12T10:40:33.647Z,10.68
2022-11-12T10:45:46.641Z,10.18
2022-11-12T10:48:32.932Z,13.68
2022-11-12T10:51:00.214Z,11.70
2022-11-12T10:56:30.533Z,11.20
2022-11-12T10:59:17.784Z,10.90
2022-11-12T11:01:46.131Z,14.75
2022-11-12T11:04:32.750Z,17.20
2022-11-12T11:07:20.242Z,10.93
2022-11-12T11:10:01.971Z,12.32
2022-11-12T11:12:31.106Z,12.90
2022-11-12T11:15:19.659Z,14.18
2022-11-12T11:17:46.439Z,12.13
2022-11-12T11:20:28.845Z,12.75
2022-11-12T11:22:57.081Z,13.85
2022-11-12T11:25:27.641Z,13.20
2022-11-12T11:28:01.544Z,14.90
2022-11-12T11:30:28.205Z,13.43
2022-11-12T11:33:32.304Z,13.48
2022-11-12T11:36:12.592Z,14.38
2022-11-12T11:41:30.067Z,13.52
2022-11-12T11:49:43.554Z,14.57
2022-11-12T11:52:32.928Z,14.75
2022-11-12T11:55:19.821Z,14.35
2022-11-12T11:58:12.693Z,14.85
2022-11-12T12:00:45.671Z,21.08
2022-11-12T12:03:20.733Z,14.45
2022-11-12T12:09:17.762Z,21.25
2022-11-12T12:15:18.438Z,15.20
2022-11-12T12:17:57.775Z,15.68
2022-11-12T12:20:30.658Z,17.80
2022-11-12T12:23:00.747Z,15.25
2022-11-12T12:25:30.384Z,13.13
2022-11-12T12:28:02.266Z,17.08
2022-11-12T12:30:28.917Z,17.77
2022-11-12T12:32:57.326Z,13.52
2022-11-12T12:35:52.870Z,14.43
2022-11-12T12:38:35.479Z,16.88
2022-11-12T12:41:27.705Z,15.10
2022-11-12T12:43:58.362Z,15.80
2022-11-12T12:46:27.653Z,13.60
2022-11-12T12:48:54.479Z,18.98
2022-11-12T12:51:21.105Z,19.77
2022-11-12T12:53:47.636Z,14.32
2022-11-12T12:56:36.758Z,15.00
2022-11-12T12:59:03.871Z,13.15
2022-11-12T13:01:33.196Z,14.38
2022-11-12T13:04:08.820Z,14.80
2022-11-12T13:06:49.589Z,12.90
2022-11-12T13:15:15.316Z,14.18
2022-11-12T13:17:43.913Z,12.75
2022-11-12T13:20:17.237Z,13.43
2022-11-12T13:22:49.088Z,12.60
2022-11-12T13:33:24.545Z,12.63
2022-11-12T13:35:51.168Z,14.27
2022-11-12T13:38:19.982Z,14.88
2022-11-12T13:41:41.741Z,15.30
2022-11-12T13:44:09.768Z,13.45
2022-11-12T13:46:36.437Z,18.02
2022-11-12T13:49:08.657Z,13.02
2022-11-12T13:51:42.884Z,12.48
2022-11-12T13:54:27.280Z,12.23
2022-11-12T13:56:53.925Z,12.25
2022-11-12T13:59:22.100Z,13.05
2022-11-12T14:01:49.192Z,13.02
2022-11-12T14:04:17.151Z,11.95
2022-11-12T14:07:07.674Z,12.57
2022-11-12T14:09:52.059Z,12.82
2022-11-12T14:12:38.236Z,12.02
2022-11-12T14:15:30.736Z,12.65
2022-11-12T14:18:07.494Z,15.02
2022-11-12T14:20:37.050Z,13.85
2022-11-12T14:23:05.756Z,11.68
2022-11-12T14:25:32.598Z,14.55
2022-11-12T14:27:59.294Z,14.45
2022-11-12T14:30:28.179Z,13.98
2022-11-12T14:32:59.906Z,16.98
2022-11-12T14:35:31.497Z,17.15
2022-11-12T14:38:03.157Z,12.68
2022-11-12T14:40:32.285Z,13.43
2022-11-12T14:42:58.883Z,16.52
2022-11-12T14:45:25.554Z,12.80
2022-11-12T14:47:52.931Z,14.32
2022-11-12T14:50:22.687Z,12.73
2022-11-12T14:52:50.649Z,14.60
2022-11-12T14:55:23.310Z,14.13
2022-11-12T15:00:19.763Z,14.70
2022-11-12T15:02:58.921Z,14.70
2022-11-12T15:05:27.682Z,18.08
2022-11-12T15:08:10.804Z,25.50
2022-11-12T15:10:40.920Z,22.08
2022-11-12T15:13:11.000Z,18.10
2022-11-12T15:15:38.866Z,18.95
2022-11-12T15:18:12.450Z,22.13
2022-11-12T15:20:39.401Z,22.50
2022-11-12T15:23:06.095Z,21.92
2022-11-12T15:25:32.769Z,23.08
2022-11-12T15:28:21.369Z,18.98
2022-11-12T15:31:07.821Z,29.85
2022-11-12T15:33:34.472Z,22.77
2022-11-12T15:36:01.216Z,26.92
2022-11-12T15:38:32.348Z,23.45
2022-11-12T15:40:59.819Z,20.38
2022-11-12T15:43:28.562Z,19.70
2022-11-12T15:45:55.769Z,20.08
2022-11-12T15:48:22.583Z,18.30
2022-11-12T15:50:49.532Z,17.75
2022-11-12T15:53:16.186Z,22.27
2022-11-12T15:55:43.083Z,20.40
2022-11-12T15:58:16.056Z,22.25
2022-11-12T16:00:42.719Z,20.83
2022-11-12T16:03:18.018Z,25.90
2022-11-12T16:05:44.830Z,28.60
2022-11-12T16:08:11.494Z,23.02
2022-11-12T16:10:38.967Z,22.77
2022-11-12T16:13:06.029Z,26.45
2022-11-12T16:15:32.683Z,58.00
2022-11-12T16:18:00.456Z,22.48
2022-11-12T16:20:30.008Z,21.63
2022-11-12T16:22:56.667Z,22.77
2022-11-12T16:25:23.240Z,19.52
2022-11-12T16:27:55.514Z,22.58
2022-11-12T16:32:50.019Z,24.65
2022-11-12T16:35:16.831Z,25.67
2022-11-12T16:37:44.782Z,31.60
2022-11-12T16:40:15.258Z,27.67
2022-11-12T16:42:45.593Z,20.67
2022-11-12T16:45:13.762Z,27.75
2022-11-12T16:47:44.116Z,24.17
2022-11-12T16:50:12.288Z,21.85
2022-11-12T16:52:38.935Z,18.58
2022-11-12T16:55:06.005Z,22.05
2022-11-12T16:57:33.257Z,31.33
2022-11-12T16:59:59.897Z,31.75
2022-11-12T17:02:26.550Z,27.15
2022-11-12T17:04:53.212Z,23.05
2022-11-12T17:07:19.839Z,34.92
2022-11-12T17:09:46.432Z,30.05
2022-11-12T17:12:13.036Z,35.97
2022-11-12T17:14:39.751Z,29.25
2022-11-12T17:17:06.402Z,30.70
2022-11-12T17:19:33.047Z,35.15
2022-11-12T17:21:59.701Z,30.10
2022-11-12T17:24:27.102Z,36.55
2022-11-12T17:26:53.848Z,38.30
2022-11-12T17:29:20.524Z,68.57
2022-11-12T17:31:49.245Z,34.58
2022-11-12T17:34:15.860Z,31.98
2022-11-12T17:36:43.875Z,32.58
2022-11-12T17:39:11.076Z,30.33
2022-11-12T17:41:37.802Z,37.45
2022-11-12T17:44:04.883Z,33.47
2022-11-12T17:46:32.613Z,38.88
2022-11-12T17:48:59.200Z,40.53
2022-11-12T17:51:27.353Z,33.33
2022-11-12T17:53:53.962Z,25.23
2022-11-12T17:56:22.121Z,32.55
2022-11-12T17:58:49.817Z,34.80
2022-11-12T18:01:24.824Z,32.95
2022-11-12T18:03:52.883Z,31.52
2022-11-12T18:06:21.315Z,34.10
2022-11-12T18:08:51.682Z,30.85
2022-11-12T18:11:18.267Z,25.67
2022-11-12T18:13:44.882Z,28.77
2022-11-12T18:16:17.343Z,28.02
2022-11-12T18:18:44.069Z,31.73
2022-11-12T18:21:10.811Z,23.77
2022-11-12T18:23:39.337Z,30.58
2022-11-12T18:26:06.174Z,34.08
2022-11-12T18:28:33.164Z,26.15
2022-11-12T18:31:01.156Z,30.67
2022-11-12T18:33:28.366Z,29.48
2022-11-12T18:36:12.321Z,25.50
2022-11-12T18:38:38.972Z,31.80
2022-11-12T18:41:14.199Z,34.28
2022-11-12T18:43:40.823Z,33.50
2022-11-12T18:46:08.383Z,27.88
2022-11-12T18:48:35.674Z,30.85
2022-11-12T18:51:11.051Z,30.25
2022-11-12T18:53:38.058Z,25.25
2022-11-12T18:56:06.890Z,28.77
2022-11-12T18:58:35.344Z,27.27
2022-11-12T19:01:06.832Z,26.48
2022-11-12T19:03:33.474Z,24.73
2022-11-12T19:06:00.485Z,26.90
2022-11-12T19:08:27.091Z,24.95
2022-11-12T19:11:02.207Z,26.83
2022-11-12T19:13:29.319Z,29.52
2022-11-12T19:15:56.391Z,24.08
2022-11-12T19:18:23.082Z,25.20
2022-11-12T19:20:49.652Z,20.65
2022-11-12T19:23:16.352Z,24.90
2022-11-12T19:25:43.023Z,26.90
2022-11-12T19:28:09.681Z,24.98
2022-11-12T19:30:36.313Z,25.13
2022-11-12T19:33:02.999Z,23.42
2022-11-12T19:35:29.642Z,25.58
2022-11-12T19:37:56.259Z,22.20
2022-11-12T19:40:22.974Z,24.02
2022-11-12T19:42:49.567Z,26.65
2022-11-12T19:45:16.233Z,27.08
2022-11-12T19:47:42.903Z,21.42
2022-11-12T19:50:09.822Z,27.05
2022-11-12T19:52:36.459Z,49.08
2022-11-12T19:55:03.182Z,24.50
2022-11-12T19:57:29.810Z,26.17
2022-11-12T19:59:56.404Z,24.42
2022-11-12T20:02:23.034Z,24.77
2022-11-12T20:04:49.623Z,27.63
2022-11-12T20:07:16.262Z,33.25
2022-11-12T20:09:42.956Z,33.85
2022-11-12T20:12:09.598Z,32.95
2022-11-12T20:14:36.192Z,27.38
2022-11-12T20:17:02.926Z,29.02
2022-11-12T20:19:29.606Z,27.70
2022-11-12T20:21:56.262Z,23.92
2022-11-12T20:24:22.931Z,29.58
2022-11-12T20:26:49.555Z,25.08
2022-11-12T20:29:16.169Z,23.58
2022-11-12T20:31:43.135Z,25.10
2022-11-12T20:34:11.207Z,25.08
2022-11-12T20:36:37.819Z,30.20
2022-11-12T20:39:04.659Z,32.60
2022-11-12T20:41:31.483Z,26.20
2022-11-12T20:43:58.671Z,27.52
2022-11-12T20:46:25.623Z,25.80
2022-11-12T20:48:54.062Z,28.42
2022-11-12T20:51:24.128Z,35.22
2022-11-12T20:53:55.938Z,48.95
2022-11-12T20:56:25.407Z,38.80
2022-11-12T20:58:52.121Z,33.58
2022-11-12T21:01:21.595Z,40.15
2022-11-12T21:03:48.367Z,32.67
2022-11-12T21:06:16.499Z,31.92
2022-11-12T21:08:43.748Z,34.38
2022-11-12T21:11:12.196Z,27.90
2022-11-12T21:13:39.103Z,34.47
2022-11-12T21:16:06.193Z,29.80
2022-11-12T21:18:33.056Z,33.90
2022-11-12T21:21:07.668Z,28.48
2022-11-12T21:23:35.688Z,26.65
2022-11-12T21:26:04.453Z,23.13
2022-11-12T21:28:36.943Z,34.40
2022-11-12T21:31:06.023Z,28.33
2022-11-12T21:33:32.812Z,32.40
2022-11-12T21:35:59.660Z,30.48
2022-11-12T21:38:27.895Z,26.90
2022-11-12T21:41:11.259Z,41.28
2022-11-12T21:43:38.612Z,25.85
2022-11-12T21:46:09.208Z,40.55
2022-11-12T21:48:36.329Z,34.90
2022-11-12T21:51:04.960Z,31.20
2022-11-12T21:53:31.970Z,23.75
2022-11-12T21:56:03.561Z,32.30
2022-11-12T21:58:30.585Z,31.85
2022-11-12T22:01:21.677Z,27.40
2022-11-12T22:03:49.585Z,27.95
2022-11-12T22:06:16.651Z,29.42
2022-11-12T22:08:43.347Z,28.95
2022-11-12T22:11:11.825Z,27.60
2022-11-12T22:13:38.859Z,27.83
2022-11-12T22:16:07.281Z,33.22
2022-11-12T22:18:34.284Z,28.92
2022-11-12T22:21:04.080Z,23.80
2022-11-12T22:23:32.935Z,25.27
2022-11-12T22:25:59.852Z,25.02
2022-11-12T22:28:26.900Z,33.28
2022-11-12T22:30:53.908Z,27.98
2022-11-12T22:33:20.636Z,29.23
2022-11-12T22:35:47.361Z,29.50
2022-11-12T22:38:14.003Z,28.35
2022-11-12T22:40:40.687Z,25.70
2022-11-12T22:43:07.363Z,29.17
2022-11-12T22:45:35.111Z,28.48
2022-11-12T22:48:01.894Z,28.50
2022-11-12T22:50:28.618Z,28.55
2022-11-12T22:52:56.124Z,32.20
2022-11-12T22:55:22.909Z,26.88
2022-11-12T22:57:49.708Z,28.38
2022-11-12T23:00:18.315Z,27.17
2022-11-12T23:02:47.683Z,27.10
2022-11-12T23:05:14.690Z,29.10
2022-11-12T23:07:41.305Z,28.15
2022-11-12T23:10:08.584Z,30.15
2022-11-12T23:12:35.138Z,26.55
2022-11-12T23:15:01.762Z,27.05
2022-11-12T23:17:28.487Z,33.63
2022-11-12T23:19:55.276Z,22.65
2022-11-12T23:22:22.310Z,33.42
2022-11-12T23:24:48.916Z,31.63
2022-11-12T23:27:15.625Z,26.20
2022-11-12T23:29:42.421Z,23.45
2022-11-12T23:32:09.063Z,26.60
2022-11-12T23:34:35.735Z,26.95
2022-11-12T23:37:02.386Z,27.00
2022-11-12T23:39:29.053Z,25.60
2022-11-12T23:41:55.659Z,30.15
2022-11-12T23:44:22.294Z,25.52
2022-11-12T23:46:48.908Z,27.42
2022-11-12T23:49:15.531Z,25.50
2022-11-12T23:51:42.134Z,30.40
2022-11-12T23:54:09.897Z,23.55
2022-11-12T23:56:36.492Z,26.67
2022-11-12T23:59:03.211Z,24.75
